sensor_id;sensor_type;location;lat;lon;timestamp;pressure;altitude;pressure_sealevel;temperature;humidity
56719;BME280;42597;40.636;0.278;2022-07-10T00:00:24;97644.38;;;25.56;49.27
56719;BME280;42597;40.636;0.278;2022-07-10T00:02:50;97638.16;;;25.69;48.77
56719;BME280;42597;40.636;0.278;2022-07-10T00:05:18;97628.78;;;25.95;48.11
56719;BME280;42597;40.636;0.278;2022-07-10T00:07:44;97632.44;;;25.76;48.69
56719;BME280;42597;40.636;0.278;2022-07-10T00:10:10;97638.06;;;25.72;48.39
56719;BME280;42597;40.636;0.278;2022-07-10T00:12:36;97630.97;;;25.71;48.67
56719;BME280;42597;40.636;0.278;2022-07-10T00:15:03;97628.28;;;25.84;48.41
56719;BME280;42597;40.636;0.278;2022-07-10T00:17:33;97628.44;;;25.77;48.53
56719;BME280;42597;40.636;0.278;2022-07-10T00:19:59;97624.91;;;25.76;48.65
56719;BME280;42597;40.636;0.278;2022-07-10T00:22:25;97622.06;;;25.64;48.66
56719;BME280;42597;40.636;0.278;2022-07-10T00:24:51;97625.09;;;25.20;48.60
56719;BME280;42597;40.636;0.278;2022-07-10T00:27:18;97617.53;;;24.88;50.45
56719;BME280;42597;40.636;0.278;2022-07-10T00:29:44;97612.59;;;24.79;50.89
56719;BME280;42597;40.636;0.278;2022-07-10T00:32:10;97610.97;;;24.82;50.18
56719;BME280;42597;40.636;0.278;2022-07-10T00:34:36;97609.75;;;24.83;50.02
56719;BME280;42597;40.636;0.278;2022-07-10T00:37:03;97602.72;;;25.47;49.66
56719;BME280;42597;40.636;0.278;2022-07-10T00:39:29;97606.34;;;25.44;49.49
56719;BME280;42597;40.636;0.278;2022-07-10T00:41:55;97597.97;;;25.48;48.92
56719;BME280;42597;40.636;0.278;2022-07-10T00:44:20;97597.84;;;25.68;48.63
56719;BME280;42597;40.636;0.278;2022-07-10T00:46:46;97603.59;;;25.28;49.74
56719;BME280;42597;40.636;0.278;2022-07-10T00:49:12;97604.03;;;25.43;48.54
56719;BME280;42597;40.636;0.278;2022-07-10T00:51:38;97598.72;;;25.65;49.24
56719;BME280;42597;40.636;0.278;2022-07-10T00:54:05;97587.06;;;25.57;49.04
56719;BME280;42597;40.636;0.278;2022-07-10T00:56:31;97597.84;;;25.68;48.87
56719;BME280;42597;40.636;0.278;2022-07-10T00:58:57;97595.97;;;25.48;48.42
56719;BME280;42597;40.636;0.278;2022-07-10T01:01:23;97591.63;;;25.64;48.84
56719;BME280;42597;40.636;0.278;2022-07-10T01:03:49;97595.78;;;25.06;49.89
56719;BME280;42597;40.636;0.278;2022-07-10T01:06:16;97599.44;;;25.20;50.12
56719;BME280;42597;40.636;0.278;2022-07-10T01:08:42;97577.13;;;25.43;49.43
56719;BME280;42597;40.636;0.278;2022-07-10T01:11:09;97585.38;;;25.30;50.02
56719;BME280;42597;40.636;0.278;2022-07-10T01:13:36;97579.00;;;25.63;48.83
56719;BME280;42597;40.636;0.278;2022-07-10T01:16:02;97581.06;;;25.75;48.79
56719;BME280;42597;40.636;0.278;2022-07-10T01:18:28;97581.97;;;25.55;49.11
56719;BME280;42597;40.636;0.278;2022-07-10T01:20:57;97574.34;;;25.59;48.77
56719;BME280;42597;40.636;0.278;2022-07-10T01:23:23;97589.00;;;25.73;48.82
56719;BME280;42597;40.636;0.278;2022-07-10T01:25:50;97580.72;;;25.73;48.71
56719;BME280;42597;40.636;0.278;2022-07-10T01:28:16;97575.16;;;25.73;48.41
56719;BME280;42597;40.636;0.278;2022-07-10T01:30:42;97576.25;;;25.63;48.80
56719;BME280;42597;40.636;0.278;2022-07-10T01:33:08;97568.53;;;25.70;48.77
56719;BME280;42597;40.636;0.278;2022-07-10T01:35:33;97574.16;;;25.67;49.04
56719;BME280;42597;40.636;0.278;2022-07-10T01:37:59;97570.09;;;25.71;48.58
56719;BME280;42597;40.636;0.278;2022-07-10T01:40:25;97570.34;;;25.60;48.78
56719;BME280;42597;40.636;0.278;2022-07-10T01:42:50;97571.44;;;25.50;49.18
56719;BME280;42597;40.636;0.278;2022-07-10T01:45:16;97567.44;;;25.02;50.28
56719;BME280;42597;40.636;0.278;2022-07-10T01:47:43;97567.97;;;25.46;49.15
56719;BME280;42597;40.636;0.278;2022-07-10T01:50:10;97568.47;;;25.57;49.06
56719;BME280;42597;40.636;0.278;2022-07-10T01:52:36;97566.00;;;25.76;48.57
56719;BME280;42597;40.636;0.278;2022-07-10T01:55:03;97559.63;;;25.79;48.30
56719;BME280;42597;40.636;0.278;2022-07-10T01:57:28;97564.97;;;25.86;47.98
56719;BME280;42597;40.636;0.278;2022-07-10T01:59:54;97557.56;;;25.67;48.43
56719;BME280;42597;40.636;0.278;2022-07-10T02:02:19;97559.16;;;25.02;49.85
56719;BME280;42597;40.636;0.278;2022-07-10T02:04:45;97556.56;;;24.95;49.24
56719;BME280;42597;40.636;0.278;2022-07-10T02:07:16;97557.09;;;25.23;49.80
56719;BME280;42597;40.636;0.278;2022-07-10T02:09:43;97559.91;;;24.70;51.10
56719;BME280;42597;40.636;0.278;2022-07-10T02:12:10;97558.28;;;25.05;50.06
56719;BME280;42597;40.636;0.278;2022-07-10T02:14:37;97548.66;;;25.14;49.72
56719;BME280;42597;40.636;0.278;2022-07-10T02:17:03;97544.72;;;24.78;49.74
56719;BME280;42597;40.636;0.278;2022-07-10T02:19:29;97538.28;;;25.18;49.73
56719;BME280;42597;40.636;0.278;2022-07-10T02:21:55;97538.19;;;25.21;49.43
56719;BME280;42597;40.636;0.278;2022-07-10T02:24:20;97540.66;;;24.83;50.51
56719;BME280;42597;40.636;0.278;2022-07-10T02:26:46;97530.91;;;25.11;49.64
56719;BME280;42597;40.636;0.278;2022-07-10T02:29:12;97533.06;;;25.03;50.14
56719;BME280;42597;40.636;0.278;2022-07-10T02:31:38;97541.84;;;24.66;50.07
56719;BME280;42597;40.636;0.278;2022-07-10T02:34:08;97532.00;;;24.28;51.24
56719;BME280;42597;40.636;0.278;2022-07-10T02:36:34;97532.44;;;24.79;50.63
56719;BME280;42597;40.636;0.278;2022-07-10T02:39:00;97525.97;;;24.70;50.40
56719;BME280;42597;40.636;0.278;2022-07-10T02:41:26;97526.09;;;25.15;49.92
56719;BME280;42597;40.636;0.278;2022-07-10T02:43:51;97524.63;;;25.10;49.73
56719;BME280;42597;40.636;0.278;2022-07-10T02:46:17;97526.41;;;25.33;48.92
56719;BME280;42597;40.636;0.278;2022-07-10T02:48:42;97518.66;;;25.12;49.12
56719;BME280;42597;40.636;0.278;2022-07-10T02:51:08;97525.88;;;24.37;50.71
56719;BME280;42597;40.636;0.278;2022-07-10T02:53:34;97522.94;;;24.80;49.62
56719;BME280;42597;40.636;0.278;2022-07-10T02:55:59;97521.81;;;24.61;49.71
56719;BME280;42597;40.636;0.278;2022-07-10T02:58:25;97517.38;;;24.28;51.27
56719;BME280;42597;40.636;0.278;2022-07-10T03:00:51;97522.91;;;24.28;50.37
56719;BME280;42597;40.636;0.278;2022-07-10T03:03:17;97527.03;;;24.20;52.55
56719;BME280;42597;40.636;0.278;2022-07-10T03:05:44;97518.53;;;24.67;51.30
56719;BME280;42597;40.636;0.278;2022-07-10T03:08:10;97518.09;;;24.68;50.78
56719;BME280;42597;40.636;0.278;2022-07-10T03:10:35;97519.16;;;24.74;49.70
56719;BME280;42597;40.636;0.278;2022-07-10T03:13:01;97512.56;;;24.68;48.94
56719;BME280;42597;40.636;0.278;2022-07-10T03:15:27;97506.25;;;25.00;49.93
56719;BME280;42597;40.636;0.278;2022-07-10T03:17:53;97507.00;;;25.21;48.68
56719;BME280;42597;40.636;0.278;2022-07-10T03:20:19;97499.44;;;25.38;48.35
56719;BME280;42597;40.636;0.278;2022-07-10T03:22:45;97510.44;;;25.25;48.98
56719;BME280;42597;40.636;0.278;2022-07-10T03:25:10;97508.88;;;25.24;48.93
56719;BME280;42597;40.636;0.278;2022-07-10T03:27:36;97500.72;;;25.00;48.75
56719;BME280;42597;40.636;0.278;2022-07-10T03:30:03;97498.28;;;24.37;50.56
56719;BME280;42597;40.636;0.278;2022-07-10T03:32:29;97504.00;;;23.90;49.92
56719;BME280;42597;40.636;0.278;2022-07-10T03:34:54;97497.81;;;24.02;49.30
56719;BME280;42597;40.636;0.278;2022-07-10T03:37:20;97502.31;;;24.69;49.77
56719;BME280;42597;40.636;0.278;2022-07-10T03:39:46;97496.69;;;25.05;48.90
56719;BME280;42597;40.636;0.278;2022-07-10T03:42:12;97489.69;;;25.33;48.26
56719;BME280;42597;40.636;0.278;2022-07-10T03:44:38;97490.88;;;25.32;47.85
56719;BME280;42597;40.636;0.278;2022-07-10T03:47:03;97495.22;;;25.33;47.53
56719;BME280;42597;40.636;0.278;2022-07-10T03:49:29;97496.25;;;25.23;47.68
56719;BME280;42597;40.636;0.278;2022-07-10T03:51:59;97497.63;;;24.98;47.71
56719;BME280;42597;40.636;0.278;2022-07-10T03:54:24;97502.09;;;25.08;48.05
56719;BME280;42597;40.636;0.278;2022-07-10T03:56:50;97498.88;;;25.14;47.96
56719;BME280;42597;40.636;0.278;2022-07-10T03:59:34;97500.25;;;25.22;47.75
56719;BME280;42597;40.636;0.278;2022-07-10T04:02:00;97493.94;;;25.21;47.44
56719;BME280;42597;40.636;0.278;2022-07-10T04:04:25;97498.50;;;24.62;45.33
56719;BME280;42597;40.636;0.278;2022-07-10T04:06:51;97502.13;;;24.59;47.36
56719;BME280;42597;40.636;0.278;2022-07-10T04:09:17;97495.41;;;24.93;48.17
56719;BME280;42597;40.636;0.278;2022-07-10T04:11:42;97491.78;;;25.13;47.69
56719;BME280;42597;40.636;0.278;2022-07-10T04:14:08;97483.25;;;25.36;46.98
56719;BME280;42597;40.636;0.278;2022-07-10T04:16:34;97487.63;;;25.21;47.13
56719;BME280;42597;40.636;0.278;2022-07-10T04:18:59;97495.41;;;24.93;47.45
56719;BME280;42597;40.636;0.278;2022-07-10T04:21:25;97483.75;;;24.69;44.67
56719;BME280;42597;40.636;0.278;2022-07-10T04:23:51;97489.00;;;24.96;47.16
56719;BME280;42597;40.636;0.278;2022-07-10T04:26:16;97487.81;;;24.97;46.93
56719;BME280;42597;40.636;0.278;2022-07-10T04:28:42;97487.97;;;25.06;46.68
56719;BME280;42597;40.636;0.278;2022-07-10T04:31:07;97485.53;;;24.43;47.84
56719;BME280;42597;40.636;0.278;2022-07-10T04:33:33;97479.84;;;24.83;47.66
56719;BME280;42597;40.636;0.278;2022-07-10T04:35:59;97485.91;;;24.94;46.94
56719;BME280;42597;40.636;0.278;2022-07-10T04:38:25;97486.84;;;24.87;47.27
56719;BME280;42597;40.636;0.278;2022-07-10T04:40:50;97492.81;;;25.02;46.67
56719;BME280;42597;40.636;0.278;2022-07-10T04:43:16;97489.69;;;25.00;46.47
56719;BME280;42597;40.636;0.278;2022-07-10T04:45:42;97486.91;;;25.00;44.91
56719;BME280;42597;40.636;0.278;2022-07-10T04:48:07;97491.25;;;25.01;46.69
56719;BME280;42597;40.636;0.278;2022-07-10T04:50:33;97484.25;;;24.97;46.24
56719;BME280;42597;40.636;0.278;2022-07-10T04:52:59;97493.25;;;24.84;46.57
56719;BME280;42597;40.636;0.278;2022-07-10T04:55:25;97503.41;;;24.55;44.18
56719;BME280;42597;40.636;0.278;2022-07-10T04:57:51;97491.84;;;24.76;47.00
56719;BME280;42597;40.636;0.278;2022-07-10T05:00:16;97488.31;;;24.92;46.24
56719;BME280;42597;40.636;0.278;2022-07-10T05:02:42;97499.56;;;25.01;45.11
56719;BME280;42597;40.636;0.278;2022-07-10T05:05:08;97497.03;;;24.91;46.48
56719;BME280;42597;40.636;0.278;2022-07-10T05:07:34;97486.41;;;25.05;45.79
56719;BME280;42597;40.636;0.278;2022-07-10T05:10:00;97505.25;;;24.78;46.48
56719;BME280;42597;40.636;0.278;2022-07-10T05:12:25;97498.03;;;24.48;46.70
56719;BME280;42597;40.636;0.278;2022-07-10T05:14:51;97515.50;;;23.22;46.89
56719;BME280;42597;40.636;0.278;2022-07-10T05:17:17;97509.31;;;22.90;46.77
56719;BME280;42597;40.636;0.278;2022-07-10T05:19:42;97514.13;;;22.83;46.89
56719;BME280;42597;40.636;0.278;2022-07-10T05:22:08;97505.81;;;22.86;46.37
56719;BME280;42597;40.636;0.278;2022-07-10T05:24:34;97513.22;;;23.17;46.05
56719;BME280;42597;40.636;0.278;2022-07-10T05:27:00;97510.66;;;22.79;46.46
56719;BME280;42597;40.636;0.278;2022-07-10T05:29:26;97513.81;;;23.28;47.57
56719;BME280;42597;40.636;0.278;2022-07-10T05:31:52;97503.78;;;24.01;45.13
56719;BME280;42597;40.636;0.278;2022-07-10T05:34:17;97518.09;;;24.68;45.54
56719;BME280;42597;40.636;0.278;2022-07-10T05:36:43;97513.72;;;24.87;44.94
56719;BME280;42597;40.636;0.278;2022-07-10T05:39:09;97514.06;;;24.89;44.63
56719;BME280;42597;40.636;0.278;2022-07-10T05:41:34;97518.38;;;24.90;44.59
56719;BME280;42597;40.636;0.278;2022-07-10T05:44:00;97518.91;;;24.85;43.80
56719;BME280;42597;40.636;0.278;2022-07-10T05:46:26;97514.78;;;25.09;44.70
56719;BME280;42597;40.636;0.278;2022-07-10T05:48:51;97513.38;;;25.18;44.56
56719;BME280;42597;40.636;0.278;2022-07-10T05:51:17;97512.00;;;25.26;44.26
56719;BME280;42597;40.636;0.278;2022-07-10T05:53:43;97510.25;;;25.32;44.09
56719;BME280;42597;40.636;0.278;2022-07-10T05:56:08;97517.81;;;25.44;43.71
56719;BME280;42597;40.636;0.278;2022-07-10T05:58:34;97516.16;;;25.18;44.39
56719;BME280;42597;40.636;0.278;2022-07-10T06:01:00;97517.78;;;25.15;44.85
56719;BME280;42597;40.636;0.278;2022-07-10T06:03:26;97523.81;;;25.43;43.97
56719;BME280;42597;40.636;0.278;2022-07-10T06:05:51;97519.88;;;25.56;43.26
56719;BME280;42597;40.636;0.278;2022-07-10T06:08:17;97526.41;;;25.33;43.61
56719;BME280;42597;40.636;0.278;2022-07-10T06:10:43;97521.75;;;25.59;41.33
56719;BME280;42597;40.636;0.278;2022-07-10T06:13:12;97530.88;;;25.73;40.03
56719;BME280;42597;40.636;0.278;2022-07-10T06:15:38;97534.28;;;25.35;41.04
56719;BME280;42597;40.636;0.278;2022-07-10T06:18:04;97546.28;;;25.28;40.09
56719;BME280;42597;40.636;0.278;2022-07-10T06:20:31;97537.66;;;25.72;40.26
56719;BME280;42597;40.636;0.278;2022-07-10T06:22:57;97532.78;;;25.47;40.60
56719;BME280;42597;40.636;0.278;2022-07-10T06:25:23;97540.75;;;25.74;39.94
56719;BME280;42597;40.636;0.278;2022-07-10T06:27:49;97532.38;;;26.06;40.51
56719;BME280;42597;40.636;0.278;2022-07-10T06:30:15;97550.59;;;25.91;40.20
56719;BME280;42597;40.636;0.278;2022-07-10T06:32:40;97540.69;;;26.06;39.67
56719;BME280;42597;40.636;0.278;2022-07-10T06:35:07;97547.22;;;26.13;40.97
56719;BME280;42597;40.636;0.278;2022-07-10T06:37:33;97551.69;;;26.23;39.75
56719;BME280;42597;40.636;0.278;2022-07-10T06:39:59;97543.06;;;26.33;39.24
56719;BME280;42597;40.636;0.278;2022-07-10T06:42:25;97552.72;;;26.42;39.93
56719;BME280;42597;40.636;0.278;2022-07-10T06:44:51;97556.09;;;26.49;39.20
56719;BME280;42597;40.636;0.278;2022-07-10T06:47:18;97544.66;;;26.47;39.43
56719;BME280;42597;40.636;0.278;2022-07-10T06:50:04;97548.66;;;26.59;39.03
56719;BME280;42597;40.636;0.278;2022-07-10T06:52:32;97549.59;;;26.40;39.65
56719;BME280;42597;40.636;0.278;2022-07-10T06:54:58;97545.41;;;26.48;40.22
56719;BME280;42597;40.636;0.278;2022-07-10T06:57:24;97554.41;;;26.52;39.58
56719;BME280;42597;40.636;0.278;2022-07-10T06:59:50;97545.75;;;27.01;39.81
56719;BME280;42597;40.636;0.278;2022-07-10T07:02:17;97550.41;;;27.04;38.82
56719;BME280;42597;40.636;0.278;2022-07-10T07:04:42;97554.75;;;27.18;39.00
56719;BME280;42597;40.636;0.278;2022-07-10T07:07:10;97554.91;;;27.36;37.40
56719;BME280;42597;40.636;0.278;2022-07-10T07:09:35;97553.94;;;27.65;37.05
56719;BME280;42597;40.636;0.278;2022-07-10T07:12:01;97545.97;;;27.19;39.15
56719;BME280;42597;40.636;0.278;2022-07-10T07:14:27;97554.63;;;26.83;40.32
56719;BME280;42597;40.636;0.278;2022-07-10T07:16:53;97553.97;;;26.53;41.04
56719;BME280;42597;40.636;0.278;2022-07-10T07:19:29;97557.28;;;26.61;41.19
56719;BME280;42597;40.636;0.278;2022-07-10T07:22:20;97553.75;;;27.12;40.23
56719;BME280;42597;40.636;0.278;2022-07-10T07:25:06;97556.72;;;27.04;40.83
56719;BME280;42597;40.636;0.278;2022-07-10T07:27:36;97558.75;;;26.91;40.55
56719;BME280;42597;40.636;0.278;2022-07-10T07:30:06;97557.50;;;28.00;41.35
56719;BME280;42597;40.636;0.278;2022-07-10T07:32:33;97559.59;;;28.18;39.59
56719;BME280;42597;40.636;0.278;2022-07-10T07:35:00;97562.91;;;28.47;39.03
56719;BME280;42597;40.636;0.278;2022-07-10T07:37:39;97558.00;;;27.86;40.94
56719;BME280;42597;40.636;0.278;2022-07-10T07:40:08;97556.25;;;28.76;41.79
56719;BME280;42597;40.636;0.278;2022-07-10T07:42:34;97566.53;;;28.66;41.97
56719;BME280;42597;40.636;0.278;2022-07-10T07:45:00;97561.84;;;28.94;41.48
56719;BME280;42597;40.636;0.278;2022-07-10T07:47:26;97561.22;;;28.90;40.73
56719;BME280;42597;40.636;0.278;2022-07-10T07:49:52;97557.28;;;29.00;40.79
56719;BME280;42597;40.636;0.278;2022-07-10T07:52:18;97565.84;;;28.84;39.71
56719;BME280;42597;40.636;0.278;2022-07-10T07:54:44;97559.50;;;28.74;40.21
56719;BME280;42597;40.636;0.278;2022-07-10T07:57:10;97568.34;;;28.51;42.74
56719;BME280;42597;40.636;0.278;2022-07-10T07:59:36;97566.13;;;28.46;42.99
56719;BME280;42597;40.636;0.278;2022-07-10T08:02:01;97557.50;;;28.84;42.42
56719;BME280;42597;40.636;0.278;2022-07-10T08:04:27;97553.13;;;29.05;41.71
56719;BME280;42597;40.636;0.278;2022-07-10T08:06:52;97548.38;;;29.15;41.55
56719;BME280;42597;40.636;0.278;2022-07-10T08:09:19;97552.41;;;29.41;39.41
56719;BME280;42597;40.636;0.278;2022-07-10T08:11:45;97552.63;;;28.97;40.75
56719;BME280;42597;40.636;0.278;2022-07-10T08:14:12;97555.38;;;29.56;40.29
56719;BME280;42597;40.636;0.278;2022-07-10T08:16:38;97551.31;;;29.39;39.52
56719;BME280;42597;40.636;0.278;2022-07-10T08:19:03;97547.75;;;29.29;39.59
56719;BME280;42597;40.636;0.278;2022-07-10T08:21:29;97551.34;;;29.48;38.48
56719;BME280;42597;40.636;0.278;2022-07-10T08:23:55;97548.47;;;29.79;38.46
56719;BME280;42597;40.636;0.278;2022-07-10T08:26:21;97546.56;;;29.94;36.38
56719;BME280;42597;40.636;0.278;2022-07-10T08:28:47;97550.94;;;29.95;35.62
56719;BME280;42597;40.636;0.278;2022-07-10T08:31:12;97546.41;;;29.98;36.98
56719;BME280;42597;40.636;0.278;2022-07-10T08:33:38;97552.13;;;29.94;34.76
56719;BME280;42597;40.636;0.278;2022-07-10T08:36:04;97551.84;;;29.65;36.80
56719;BME280;42597;40.636;0.278;2022-07-10T08:38:30;97550.13;;;30.04;36.28
56719;BME280;42597;40.636;0.278;2022-07-10T08:40:56;97547.69;;;29.88;36.72
56719;BME280;42597;40.636;0.278;2022-07-10T08:43:25;97550.91;;;29.86;37.29
56719;BME280;42597;40.636;0.278;2022-07-10T08:45:51;97544.22;;;30.30;36.34
56719;BME280;42597;40.636;0.278;2022-07-10T08:48:22;97544.06;;;30.33;36.95
56719;BME280;42597;40.636;0.278;2022-07-10T08:50:52;97541.78;;;30.74;36.91
56719;BME280;42597;40.636;0.278;2022-07-10T08:53:29;97540.56;;;30.99;33.86
56719;BME280;42597;40.636;0.278;2022-07-10T08:55:55;97540.28;;;30.97;34.25
56719;BME280;42597;40.636;0.278;2022-07-10T08:58:22;97540.50;;;30.84;33.48
56719;BME280;42597;40.636;0.278;2022-07-10T09:00:48;97541.69;;;30.92;34.27
56719;BME280;42597;40.636;0.278;2022-07-10T09:03:13;97537.59;;;29.99;36.58
56719;BME280;42597;40.636;0.278;2022-07-10T09:05:39;97539.03;;;30.98;32.77
56719;BME280;42597;40.636;0.278;2022-07-10T09:08:21;97530.13;;;30.85;33.60
56719;BME280;42597;40.636;0.278;2022-07-10T09:10:47;97533.03;;;30.90;33.18
56719;BME280;42597;40.636;0.278;2022-07-10T09:13:13;97537.56;;;31.12;33.46
56719;BME280;42597;40.636;0.278;2022-07-10T09:15:38;97533.53;;;30.37;34.90
56719;BME280;42597;40.636;0.278;2022-07-10T09:18:05;97532.19;;;30.66;33.95
56719;BME280;42597;40.636;0.278;2022-07-10T09:20:35;97531.00;;;30.91;34.51
56719;BME280;42597;40.636;0.278;2022-07-10T09:25:44;97531.69;;;31.58;30.94
56719;BME280;42597;40.636;0.278;2022-07-10T09:28:12;97524.34;;;31.45;30.70
56719;BME280;42597;40.636;0.278;2022-07-10T09:30:39;97532.09;;;31.17;29.98
56719;BME280;42597;40.636;0.278;2022-07-10T09:33:24;97526.16;;;31.73;30.77
56719;BME280;42597;40.636;0.278;2022-07-10T09:36:03;97525.44;;;31.63;30.46
56719;BME280;42597;40.636;0.278;2022-07-10T09:46:12;97536.50;;;30.06;34.77
56719;BME280;42597;40.636;0.278;2022-07-10T09:48:38;97534.72;;;30.45;33.43
56719;BME280;42597;40.636;0.278;2022-07-10T09:51:07;97541.53;;;31.68;30.62
56719;BME280;42597;40.636;0.278;2022-07-10T09:53:43;97530.06;;;31.66;31.26
56719;BME280;42597;40.636;0.278;2022-07-10T09:56:11;97528.34;;;32.22;29.97
56719;BME280;42597;40.636;0.278;2022-07-10T09:58:37;97531.25;;;31.74;29.43
56719;BME280;42597;40.636;0.278;2022-07-10T10:01:05;97530.75;;;31.76;29.11
56719;BME280;42597;40.636;0.278;2022-07-10T10:03:40;97524.84;;;31.98;29.72
56719;BME280;42597;40.636;0.278;2022-07-10T10:06:11;97521.78;;;30.66;32.76
56719;BME280;42597;40.636;0.278;2022-07-10T10:09:03;97519.34;;;32.03;30.57
56719;BME280;42597;40.636;0.278;2022-07-10T10:11:32;97521.28;;;32.56;29.91
56719;BME280;42597;40.636;0.278;2022-07-10T10:14:00;97525.66;;;29.99;34.14
56719;BME280;42597;40.636;0.278;2022-07-10T10:16:27;97518.69;;;31.31;30.44
56719;BME280;42597;40.636;0.278;2022-07-10T10:18:53;97527.56;;;31.29;30.97
56719;BME280;42597;40.636;0.278;2022-07-10T10:21:39;97520.59;;;30.91;31.81
56719;BME280;42597;40.636;0.278;2022-07-10T10:24:05;97519.09;;;31.38;31.98
56719;BME280;42597;40.636;0.278;2022-07-10T10:26:32;97525.53;;;27.95;38.35
56719;BME280;42597;40.636;0.278;2022-07-10T10:29:00;97511.94;;;29.68;35.12
56719;BME280;42597;40.636;0.278;2022-07-10T10:31:27;97504.88;;;31.27;31.62
56719;BME280;42597;40.636;0.278;2022-07-10T10:33:55;97495.94;;;31.86;31.32
56719;BME280;42597;40.636;0.278;2022-07-10T10:39:04;97499.94;;;30.32;34.70
56719;BME280;42597;40.636;0.278;2022-07-10T10:41:42;97509.94;;;27.76;38.80
56719;BME280;42597;40.636;0.278;2022-07-10T10:46:35;97497.34;;;30.61;33.62
56719;BME280;42597;40.636;0.278;2022-07-10T10:49:08;97497.09;;;28.44;37.48
56719;BME280;42597;40.636;0.278;2022-07-10T10:54:28;97480.38;;;31.31;31.82
56719;BME280;42597;40.636;0.278;2022-07-10T10:57:14;97478.06;;;31.68;29.47
56719;BME280;42597;40.636;0.278;2022-07-10T11:04:51;97472.03;;;31.22;32.61
56719;BME280;42597;40.636;0.278;2022-07-10T11:10:43;97459.81;;;31.58;31.18
56719;BME280;42597;40.636;0.278;2022-07-10T11:15:49;97465.81;;;31.03;33.58
56719;BME280;42597;40.636;0.278;2022-07-10T11:18:20;97472.06;;;31.61;32.67
56719;BME280;42597;40.636;0.278;2022-07-10T11:20:52;97462.22;;;30.45;34.53
56719;BME280;42597;40.636;0.278;2022-07-10T11:29:18;97459.34;;;31.60;32.55
56719;BME280;42597;40.636;0.278;2022-07-10T11:31:52;97455.66;;;31.15;31.38
56719;BME280;42597;40.636;0.278;2022-07-10T11:34:18;97454.59;;;30.88;33.48
56719;BME280;42597;40.636;0.278;2022-07-10T11:36:44;97452.81;;;31.24;33.53
56719;BME280;42597;40.636;0.278;2022-07-10T11:39:12;97455.91;;;31.02;32.83
56719;BME280;42597;40.636;0.278;2022-07-10T11:41:46;97439.16;;;30.78;34.71
56719;BME280;42597;40.636;0.278;2022-07-10T11:44:16;97447.22;;;31.24;33.72
56719;BME280;42597;40.636;0.278;2022-07-10T11:46:42;97442.91;;;31.91;32.29
56719;BME280;42597;40.636;0.278;2022-07-10T11:49:10;97441.69;;;31.15;33.19
56719;BME280;42597;40.636;0.278;2022-07-10T11:51:38;97441.91;;;31.50;33.61
56719;BME280;42597;40.636;0.278;2022-07-10T11:54:08;97446.88;;;31.31;34.32
56719;BME280;42597;40.636;0.278;2022-07-10T11:56:41;97439.75;;;31.30;34.55
56719;BME280;42597;40.636;0.278;2022-07-10T11:59:09;97442.84;;;31.32;35.14
56719;BME280;42597;40.636;0.278;2022-07-10T12:01:40;97437.47;;;31.19;34.58
56719;BME280;42597;40.636;0.278;2022-07-10T12:04:07;97437.84;;;31.36;34.86
56719;BME280;42597;40.636;0.278;2022-07-10T12:06:39;97432.91;;;31.31;36.16
56719;BME280;42597;40.636;0.278;2022-07-10T12:09:08;97431.31;;;30.91;35.84
56719;BME280;42597;40.636;0.278;2022-07-10T12:11:36;97421.78;;;31.22;35.16
56719;BME280;42597;40.636;0.278;2022-07-10T12:14:16;97427.28;;;29.74;37.32
56719;BME280;42597;40.636;0.278;2022-07-10T12:16:47;97438.06;;;30.52;37.23
56719;BME280;42597;40.636;0.278;2022-07-10T12:19:15;97432.38;;;30.94;34.63
56719;BME280;42597;40.636;0.278;2022-07-10T12:21:43;97427.03;;;31.05;35.03
56719;BME280;42597;40.636;0.278;2022-07-10T12:24:09;97430.72;;;30.87;36.41
56719;BME280;42597;40.636;0.278;2022-07-10T12:26:37;97419.94;;;30.80;37.01
56719;BME280;42597;40.636;0.278;2022-07-10T12:29:04;97428.31;;;30.71;35.35
56719;BME280;42597;40.636;0.278;2022-07-10T12:31:32;97426.91;;;31.00;35.09
56719;BME280;42597;40.636;0.278;2022-07-10T12:34:00;97418.66;;;30.24;36.86
56719;BME280;42597;40.636;0.278;2022-07-10T12:37:08;97423.25;;;30.93;36.53
56719;BME280;42597;40.636;0.278;2022-07-10T12:39:45;97424.44;;;31.02;35.17
56719;BME280;42597;40.636;0.278;2022-07-10T12:42:11;97431.16;;;29.40;39.11
56719;BME280;42597;40.636;0.278;2022-07-10T12:44:44;97426.75;;;30.04;37.04
56719;BME280;42597;40.636;0.278;2022-07-10T12:47:15;97419.66;;;30.69;35.52
56719;BME280;42597;40.636;0.278;2022-07-10T12:50:03;97428.59;;;30.16;36.26
56719;BME280;42597;40.636;0.278;2022-07-10T12:52:32;97419.13;;;29.43;38.17
56719;BME280;42597;40.636;0.278;2022-07-10T12:57:56;97428.94;;;30.75;34.75
56719;BME280;42597;40.636;0.278;2022-07-10T13:00:27;97417.16;;;30.71;35.84
56719;BME280;42597;40.636;0.278;2022-07-10T13:03:01;97422.06;;;30.19;39.03
56719;BME280;42597;40.636;0.278;2022-07-10T13:05:48;97417.16;;;30.71;38.11
56719;BME280;42597;40.636;0.278;2022-07-10T13:08:19;97425.25;;;30.69;37.44
56719;BME280;42597;40.636;0.278;2022-07-10T13:10:57;97409.13;;;30.73;37.11
56719;BME280;42597;40.636;0.278;2022-07-10T13:13:26;97412.53;;;30.68;37.48
56719;BME280;42597;40.636;0.278;2022-07-10T13:15:52;97409.72;;;30.77;36.58
56719;BME280;42597;40.636;0.278;2022-07-10T13:18:26;97413.03;;;30.90;35.38
56719;BME280;42597;40.636;0.278;2022-07-10T13:20:56;97407.06;;;30.49;36.47
56719;BME280;42597;40.636;0.278;2022-07-10T13:23:23;97400.78;;;30.64;35.09
56719;BME280;42597;40.636;0.278;2022-07-10T13:25:54;97404.59;;;30.52;35.45
56719;BME280;42597;40.636;0.278;2022-07-10T13:28:20;97399.63;;;30.46;35.24
56719;BME280;42597;40.636;0.278;2022-07-10T13:30:46;97403.38;;;30.43;33.88
56719;BME280;42597;40.636;0.278;2022-07-10T13:33:12;97393.88;;;30.50;32.55
56719;BME280;42597;40.636;0.278;2022-07-10T13:35:38;97411.44;;;28.61;37.66
56719;BME280;42597;40.636;0.278;2022-07-10T13:38:04;97399.06;;;30.66;35.48
56719;BME280;42597;40.636;0.278;2022-07-10T13:40:33;97400.53;;;30.53;32.42